Winona, West Virginia
Current Conditions -  °F | °C
As of 11:51 PM on Saturday 22 Nov 2014 (Local Time) from KBKW Reporting Station
Clear Clear  
Wind Chill: 39°   Ceiling: Unl
Heat Index: 43°   Visibility: 10mi
Dew Point: 17°   Wind: 7mph
Humidity: 35%   Direction: 150°SSE
Pressure: 30.18"   Gusts: NA
Location:  38.05°N, 80.99°W
Report Text: KBKW 230451Z AUTO 15006KT 10SM CLR 06/M08 A3018 RMK AO2 SLP221 T00611083 401331044
Loading
Personal Weather Stations






























Interactive Weather Map New forecast layout! Learn more

10-Day Weather Forecast

Advertisements
Track Severe Weather on mobile